sensor_id;sensor_type;location;lat;lon;timestamp;temperature;humidity
46652;DHT22;32377;52.182;5.398;2022-09-13T00:01:29;19.10;99.90
46652;DHT22;32377;52.182;5.398;2022-09-13T00:03:54;19.10;99.90
46652;DHT22;32377;52.182;5.398;2022-09-13T00:06:21;19.10;99.90
46652;DHT22;32377;52.182;5.398;2022-09-13T00:08:47;19.00;99.90
46652;DHT22;32377;52.182;5.398;2022-09-13T00:11:19;19.10;99.90
46652;DHT22;32377;52.182;5.398;2022-09-13T00:13:45;19.10;99.90
46652;DHT22;32377;52.182;5.398;2022-09-13T00:16:18;19.00;99.90
46652;DHT22;32377;52.182;5.398;2022-09-13T00:18:44;19.00;99.90
46652;DHT22;32377;52.182;5.398;2022-09-13T00:21:12;19.00;99.90
46652;DHT22;32377;52.182;5.398;2022-09-13T00:23:39;19.00;99.90
46652;DHT22;32377;52.182;5.398;2022-09-13T00:26:11;19.00;99.90
46652;DHT22;32377;52.182;5.398;2022-09-13T00:28:38;19.00;99.90
46652;DHT22;32377;52.182;5.398;2022-09-13T00:31:06;19.00;99.90
46652;DHT22;32377;52.182;5.398;2022-09-13T00:33:33;19.00;99.90
46652;DHT22;32377;52.182;5.398;2022-09-13T00:36:05;19.00;99.90
46652;DHT22;32377;52.182;5.398;2022-09-13T00:38:33;19.00;99.90
46652;DHT22;32377;52.182;5.398;2022-09-13T00:40:59;18.90;99.90
46652;DHT22;32377;52.182;5.398;2022-09-13T00:46:13;18.80;99.90
46652;DHT22;32377;52.182;5.398;2022-09-13T00:48:41;18.80;99.90
46652;DHT22;32377;52.182;5.398;2022-09-13T00:51:09;18.70;99.90
46652;DHT22;32377;52.182;5.398;2022-09-13T00:53:38;18.70;99.90
46652;DHT22;32377;52.182;5.398;2022-09-13T00:56:11;18.70;99.90
46652;DHT22;32377;52.182;5.398;2022-09-13T00:58:42;18.60;99.90
46652;DHT22;32377;52.182;5.398;2022-09-13T01:01:12;18.60;99.90
46652;DHT22;32377;52.182;5.398;2022-09-13T01:03:39;18.60;99.90
46652;DHT22;32377;52.182;5.398;2022-09-13T01:06:14;18.60;99.90
46652;DHT22;32377;52.182;5.398;2022-09-13T01:08:42;18.70;99.90
46652;DHT22;32377;52.182;5.398;2022-09-13T01:11:18;18.60;99.90
46652;DHT22;32377;52.182;5.398;2022-09-13T01:13:44;18.60;99.90
46652;DHT22;32377;52.182;5.398;2022-09-13T01:16:11;18.60;99.90
46652;DHT22;32377;52.182;5.398;2022-09-13T01:18:36;18.60;99.90
46652;DHT22;32377;52.182;5.398;2022-09-13T01:21:20;18.60;99.90
46652;DHT22;32377;52.182;5.398;2022-09-13T01:30:19;18.60;99.90
46652;DHT22;32377;52.182;5.398;2022-09-13T01:38:36;18.50;99.90
46652;DHT22;32377;52.182;5.398;2022-09-13T01:44:06;18.50;99.90
46652;DHT22;32377;52.182;5.398;2022-09-13T01:52:20;18.40;99.90
46652;DHT22;32377;52.182;5.398;2022-09-13T01:55:04;18.40;99.90
46652;DHT22;32377;52.182;5.398;2022-09-13T01:57:31;18.40;99.90
46652;DHT22;32377;52.182;5.398;2022-09-13T02:00:07;18.30;99.90
46652;DHT22;32377;52.182;5.398;2022-09-13T02:05:49;18.30;99.90
46652;DHT22;32377;52.182;5.398;2022-09-13T02:08:24;18.20;99.90
46652;DHT22;32377;52.182;5.398;2022-09-13T02:10:56;18.20;99.90
46652;DHT22;32377;52.182;5.398;2022-09-13T02:13:26;18.20;99.90
46652;DHT22;32377;52.182;5.398;2022-09-13T02:15:57;18.20;99.90
46652;DHT22;32377;52.182;5.398;2022-09-13T02:18:27;18.20;99.90
46652;DHT22;32377;52.182;5.398;2022-09-13T02:20:59;18.30;99.90
46652;DHT22;32377;52.182;5.398;2022-09-13T02:23:33;18.20;99.90
46652;DHT22;32377;52.182;5.398;2022-09-13T02:26:00;18.20;99.90
46652;DHT22;32377;52.182;5.398;2022-09-13T02:28:36;18.20;99.90
46652;DHT22;32377;52.182;5.398;2022-09-13T02:31:07;18.20;99.90
46652;DHT22;32377;52.182;5.398;2022-09-13T02:33:40;18.10;99.90
46652;DHT22;32377;52.182;5.398;2022-09-13T02:36:13;18.20;99.90
46652;DHT22;32377;52.182;5.398;2022-09-13T02:38:46;18.20;99.90
46652;DHT22;32377;52.182;5.398;2022-09-13T02:55:52;18.00;99.90
46652;DHT22;32377;52.182;5.398;2022-09-13T02:58:25;18.00;99.90
46652;DHT22;32377;52.182;5.398;2022-09-13T03:00:53;18.00;99.90
46652;DHT22;32377;52.182;5.398;2022-09-13T03:03:20;18.00;99.90
46652;DHT22;32377;52.182;5.398;2022-09-13T03:05:45;18.00;99.90
46652;DHT22;32377;52.182;5.398;2022-09-13T03:08:12;17.90;99.90
46652;DHT22;32377;52.182;5.398;2022-09-13T03:10:50;17.90;99.90
46652;DHT22;32377;52.182;5.398;2022-09-13T03:13:32;17.80;99.90
46652;DHT22;32377;52.182;5.398;2022-09-13T03:16:25;17.80;99.90
46652;DHT22;32377;52.182;5.398;2022-09-13T03:22:19;17.80;99.90
46652;DHT22;32377;52.182;5.398;2022-09-13T03:25:04;17.80;99.90
46652;DHT22;32377;52.182;5.398;2022-09-13T03:27:40;17.80;99.90
46652;DHT22;32377;52.182;5.398;2022-09-13T03:30:11;17.80;99.90
46652;DHT22;32377;52.182;5.398;2022-09-13T03:38:28;17.80;99.90
46652;DHT22;32377;52.182;5.398;2022-09-13T03:40:59;17.70;99.90
46652;DHT22;32377;52.182;5.398;2022-09-13T03:43:47;17.80;99.90
46652;DHT22;32377;52.182;5.398;2022-09-13T03:46:19;17.80;99.90
46652;DHT22;32377;52.182;5.398;2022-09-13T03:48:46;17.80;99.90
46652;DHT22;32377;52.182;5.398;2022-09-13T03:51:12;17.80;99.90
46652;DHT22;32377;52.182;5.398;2022-09-13T03:53:42;17.70;99.90
46652;DHT22;32377;52.182;5.398;2022-09-13T03:56:15;17.70;99.90
46652;DHT22;32377;52.182;5.398;2022-09-13T03:58:41;17.70;99.90
46652;DHT22;32377;52.182;5.398;2022-09-13T04:01:07;17.70;99.90
46652;DHT22;32377;52.182;5.398;2022-09-13T04:03:37;17.70;99.90
46652;DHT22;32377;52.182;5.398;2022-09-13T04:06:03;17.70;99.90
46652;DHT22;32377;52.182;5.398;2022-09-13T04:08:30;17.70;99.90
46652;DHT22;32377;52.182;5.398;2022-09-13T04:10:55;17.70;99.90
46652;DHT22;32377;52.182;5.398;2022-09-13T04:13:21;17.80;99.90
46652;DHT22;32377;52.182;5.398;2022-09-13T04:15:47;17.70;99.90
46652;DHT22;32377;52.182;5.398;2022-09-13T04:18:14;17.80;99.90
46652;DHT22;32377;52.182;5.398;2022-09-13T04:20:40;17.80;99.90
46652;DHT22;32377;52.182;5.398;2022-09-13T04:23:06;17.70;99.90
46652;DHT22;32377;52.182;5.398;2022-09-13T04:25:31;17.80;99.90
46652;DHT22;32377;52.182;5.398;2022-09-13T04:27:57;17.80;99.90
46652;DHT22;32377;52.182;5.398;2022-09-13T04:30:25;17.70;99.90
46652;DHT22;32377;52.182;5.398;2022-09-13T04:32:50;17.70;99.90
46652;DHT22;32377;52.182;5.398;2022-09-13T04:35:17;17.70;99.90
46652;DHT22;32377;52.182;5.398;2022-09-13T04:37:44;17.60;99.90
46652;DHT22;32377;52.182;5.398;2022-09-13T04:40:10;17.60;99.90
46652;DHT22;32377;52.182;5.398;2022-09-13T04:42:36;17.60;99.90
46652;DHT22;32377;52.182;5.398;2022-09-13T04:45:03;17.60;99.90
46652;DHT22;32377;52.182;5.398;2022-09-13T04:47:30;17.60;99.90
46652;DHT22;32377;52.182;5.398;2022-09-13T04:49:56;17.60;99.90
46652;DHT22;32377;52.182;5.398;2022-09-13T04:52:21;17.50;99.90
46652;DHT22;32377;52.182;5.398;2022-09-13T04:54:47;17.50;99.90
46652;DHT22;32377;52.182;5.398;2022-09-13T04:57:14;17.50;99.90
46652;DHT22;32377;52.182;5.398;2022-09-13T04:59:40;17.50;99.90
46652;DHT22;32377;52.182;5.398;2022-09-13T05:02:06;17.40;99.90
46652;DHT22;32377;52.182;5.398;2022-09-13T05:04:31;17.40;99.90
46652;DHT22;32377;52.182;5.398;2022-09-13T05:06:57;17.40;99.90
46652;DHT22;32377;52.182;5.398;2022-09-13T05:09:23;17.30;99.90
46652;DHT22;32377;52.182;5.398;2022-09-13T05:11:49;17.30;99.90
46652;DHT22;32377;52.182;5.398;2022-09-13T05:14:15;17.30;99.90
46652;DHT22;32377;52.182;5.398;2022-09-13T05:16:41;17.40;99.90
46652;DHT22;32377;52.182;5.398;2022-09-13T05:19:06;17.40;99.90
46652;DHT22;32377;52.182;5.398;2022-09-13T05:21:33;17.40;99.90
46652;DHT22;32377;52.182;5.398;2022-09-13T05:23:58;17.40;99.90
46652;DHT22;32377;52.182;5.398;2022-09-13T05:26:26;17.50;99.90
46652;DHT22;32377;52.182;5.398;2022-09-13T05:28:53;17.50;99.90
46652;DHT22;32377;52.182;5.398;2022-09-13T05:31:24;17.60;99.90
46652;DHT22;32377;52.182;5.398;2022-09-13T05:34:12;17.60;99.90
46652;DHT22;32377;52.182;5.398;2022-09-13T05:36:38;17.60;99.90
46652;DHT22;32377;52.182;5.398;2022-09-13T05:39:05;17.70;99.90
46652;DHT22;32377;52.182;5.398;2022-09-13T05:41:32;17.70;99.90
46652;DHT22;32377;52.182;5.398;2022-09-13T05:43:57;17.70;99.90
46652;DHT22;32377;52.182;5.398;2022-09-13T05:46:23;17.80;99.90
46652;DHT22;32377;52.182;5.398;2022-09-13T05:48:49;17.80;99.90
46652;DHT22;32377;52.182;5.398;2022-09-13T05:51:17;17.90;99.90
46652;DHT22;32377;52.182;5.398;2022-09-13T05:53:44;17.90;99.90
46652;DHT22;32377;52.182;5.398;2022-09-13T05:56:12;17.90;99.90
46652;DHT22;32377;52.182;5.398;2022-09-13T05:58:40;17.90;99.90
46652;DHT22;32377;52.182;5.398;2022-09-13T06:01:06;18.00;99.90
46652;DHT22;32377;52.182;5.398;2022-09-13T06:03:32;18.00;99.90
46652;DHT22;32377;52.182;5.398;2022-09-13T06:05:57;18.00;99.90
46652;DHT22;32377;52.182;5.398;2022-09-13T06:08:27;18.10;99.90
46652;DHT22;32377;52.182;5.398;2022-09-13T06:11:01;18.10;99.90
46652;DHT22;32377;52.182;5.398;2022-09-13T06:13:28;18.20;99.90
46652;DHT22;32377;52.182;5.398;2022-09-13T06:15:55;18.20;99.90
46652;DHT22;32377;52.182;5.398;2022-09-13T06:18:22;18.20;99.90
46652;DHT22;32377;52.182;5.398;2022-09-13T06:20:49;18.30;99.90
46652;DHT22;32377;52.182;5.398;2022-09-13T06:23:16;18.30;99.90
46652;DHT22;32377;52.182;5.398;2022-09-13T06:25:42;18.40;99.90
46652;DHT22;32377;52.182;5.398;2022-09-13T06:28:08;18.40;99.90
46652;DHT22;32377;52.182;5.398;2022-09-13T06:30:34;18.40;99.90
46652;DHT22;32377;52.182;5.398;2022-09-13T06:33:00;18.50;99.90
46652;DHT22;32377;52.182;5.398;2022-09-13T06:35:26;18.50;99.90
46652;DHT22;32377;52.182;5.398;2022-09-13T06:37:56;18.60;99.90
46652;DHT22;32377;52.182;5.398;2022-09-13T06:40:23;18.70;99.90
46652;DHT22;32377;52.182;5.398;2022-09-13T06:42:49;18.60;99.90
46652;DHT22;32377;52.182;5.398;2022-09-13T06:45:14;18.70;99.90
46652;DHT22;32377;52.182;5.398;2022-09-13T06:47:40;18.70;99.90
46652;DHT22;32377;52.182;5.398;2022-09-13T06:50:06;18.70;99.90
46652;DHT22;32377;52.182;5.398;2022-09-13T06:52:32;18.80;99.90
46652;DHT22;32377;52.182;5.398;2022-09-13T06:54:58;18.90;99.90
46652;DHT22;32377;52.182;5.398;2022-09-13T06:57:24;18.90;99.90
46652;DHT22;32377;52.182;5.398;2022-09-13T06:59:49;18.90;99.90
46652;DHT22;32377;52.182;5.398;2022-09-13T07:02:15;18.90;99.90
46652;DHT22;32377;52.182;5.398;2022-09-13T07:04:40;18.90;99.90
46652;DHT22;32377;52.182;5.398;2022-09-13T07:07:06;18.80;99.90
46652;DHT22;32377;52.182;5.398;2022-09-13T07:09:31;18.80;99.90
46652;DHT22;32377;52.182;5.398;2022-09-13T07:11:59;18.70;99.90
46652;DHT22;32377;52.182;5.398;2022-09-13T07:14:27;18.80;99.90
46652;DHT22;32377;52.182;5.398;2022-09-13T07:16:53;18.80;99.90
46652;DHT22;32377;52.182;5.398;2022-09-13T07:19:28;18.90;99.90
46652;DHT22;32377;52.182;5.398;2022-09-13T07:21:55;19.00;99.90
46652;DHT22;32377;52.182;5.398;2022-09-13T07:24:21;19.00;99.90
46652;DHT22;32377;52.182;5.398;2022-09-13T07:26:47;19.10;99.90
46652;DHT22;32377;52.182;5.398;2022-09-13T07:29:16;19.20;99.90
46652;DHT22;32377;52.182;5.398;2022-09-13T07:31:45;19.40;99.90
46652;DHT22;32377;52.182;5.398;2022-09-13T07:34:13;19.40;99.90
46652;DHT22;32377;52.182;5.398;2022-09-13T07:36:39;19.50;99.90
46652;DHT22;32377;52.182;5.398;2022-09-13T07:39:05;19.60;99.90
46652;DHT22;32377;52.182;5.398;2022-09-13T07:41:32;19.70;99.90
46652;DHT22;32377;52.182;5.398;2022-09-13T07:43:59;19.70;99.90
46652;DHT22;32377;52.182;5.398;2022-09-13T07:46:28;19.80;99.90
46652;DHT22;32377;52.182;5.398;2022-09-13T07:48:56;19.90;99.90
46652;DHT22;32377;52.182;5.398;2022-09-13T07:51:26;19.80;99.90
46652;DHT22;32377;52.182;5.398;2022-09-13T07:53:55;19.80;99.90
46652;DHT22;32377;52.182;5.398;2022-09-13T07:56:23;19.90;99.90
46652;DHT22;32377;52.182;5.398;2022-09-13T07:58:50;19.80;99.90
46652;DHT22;32377;52.182;5.398;2022-09-13T08:01:36;19.90;99.90
46652;DHT22;32377;52.182;5.398;2022-09-13T08:04:08;20.00;99.90
46652;DHT22;32377;52.182;5.398;2022-09-13T08:06:35;20.10;99.90
46652;DHT22;32377;52.182;5.398;2022-09-13T08:09:03;20.00;99.90
46652;DHT22;32377;52.182;5.398;2022-09-13T08:11:35;20.10;99.90
46652;DHT22;32377;52.182;5.398;2022-09-13T08:14:02;20.10;99.90
46652;DHT22;32377;52.182;5.398;2022-09-13T08:16:28;20.20;99.90
46652;DHT22;32377;52.182;5.398;2022-09-13T08:18:56;20.40;99.90
46652;DHT22;32377;52.182;5.398;2022-09-13T08:21:23;20.30;99.90
46652;DHT22;32377;52.182;5.398;2022-09-13T08:23:52;20.30;99.90
46652;DHT22;32377;52.182;5.398;2022-09-13T08:26:18;20.20;99.90
46652;DHT22;32377;52.182;5.398;2022-09-13T08:28:44;20.40;99.90
46652;DHT22;32377;52.182;5.398;2022-09-13T08:31:11;20.50;99.90
46652;DHT22;32377;52.182;5.398;2022-09-13T08:33:38;20.60;99.90
46652;DHT22;32377;52.182;5.398;2022-09-13T08:36:04;20.80;99.90
46652;DHT22;32377;52.182;5.398;2022-09-13T08:38:31;20.80;99.90
46652;DHT22;32377;52.182;5.398;2022-09-13T08:41:03;20.90;99.90
46652;DHT22;32377;52.182;5.398;2022-09-13T08:43:48;21.00;99.90
46652;DHT22;32377;52.182;5.398;2022-09-13T08:46:34;21.00;99.90
46652;DHT22;32377;52.182;5.398;2022-09-13T08:49:04;20.90;99.90
46652;DHT22;32377;52.182;5.398;2022-09-13T08:51:47;21.00;99.90
46652;DHT22;32377;52.182;5.398;2022-09-13T08:54:14;21.00;99.90
46652;DHT22;32377;52.182;5.398;2022-09-13T08:56:50;21.00;99.90
46652;DHT22;32377;52.182;5.398;2022-09-13T09:02:47;21.20;99.90
46652;DHT22;32377;52.182;5.398;2022-09-13T09:08:14;21.00;99.90
46652;DHT22;32377;52.182;5.398;2022-09-13T09:10:47;21.00;99.90
46652;DHT22;32377;52.182;5.398;2022-09-13T09:13:34;21.10;99.90
46652;DHT22;32377;52.182;5.398;2022-09-13T09:16:05;21.10;99.90
46652;DHT22;32377;52.182;5.398;2022-09-13T09:21:00;20.90;99.90
46652;DHT22;32377;52.182;5.398;2022-09-13T09:23:40;21.00;99.90
46652;DHT22;32377;52.182;5.398;2022-09-13T09:26:22;21.00;99.90
46652;DHT22;32377;52.182;5.398;2022-09-13T09:29:26;20.90;99.90
46652;DHT22;32377;52.182;5.398;2022-09-13T09:34:53;21.00;99.90
46652;DHT22;32377;52.182;5.398;2022-09-13T09:37:24;21.10;99.90
46652;DHT22;32377;52.182;5.398;2022-09-13T09:39:57;21.00;99.90
46652;DHT22;32377;52.182;5.398;2022-09-13T09:42:27;20.90;99.90
46652;DHT22;32377;52.182;5.398;2022-09-13T09:45:22;21.10;99.90
46652;DHT22;32377;52.182;5.398;2022-09-13T09:47:49;21.20;99.90
46652;DHT22;32377;52.182;5.398;2022-09-13T09:50:41;21.20;99.90
46652;DHT22;32377;52.182;5.398;2022-09-13T09:53:26;21.20;99.90
46652;DHT22;32377;52.182;5.398;2022-09-13T09:58:48;21.40;99.90
46652;DHT22;32377;52.182;5.398;2022-09-13T10:01:23;21.40;99.90
46652;DHT22;32377;52.182;5.398;2022-09-13T10:04:05;21.60;99.90
46652;DHT22;32377;52.182;5.398;2022-09-13T10:06:33;21.50;99.90
46652;DHT22;32377;52.182;5.398;2022-09-13T10:11:54;21.30;99.90
46652;DHT22;32377;52.182;5.398;2022-09-13T10:19:51;21.50;99.90
46652;DHT22;32377;52.182;5.398;2022-09-13T10:22:18;21.60;99.90
46652;DHT22;32377;52.182;5.398;2022-09-13T10:24:44;21.60;99.90
46652;DHT22;32377;52.182;5.398;2022-09-13T10:27:32;21.70;99.90
46652;DHT22;32377;52.182;5.398;2022-09-13T10:30:00;21.60;99.90
46652;DHT22;32377;52.182;5.398;2022-09-13T10:32:27;21.70;99.90
46652;DHT22;32377;52.182;5.398;2022-09-13T10:34:53;21.60;99.90
46652;DHT22;32377;52.182;5.398;2022-09-13T10:37:29;21.60;99.90
46652;DHT22;32377;52.182;5.398;2022-09-13T10:40:04;21.70;99.90
46652;DHT22;32377;52.182;5.398;2022-09-13T10:42:32;21.70;99.90
46652;DHT22;32377;52.182;5.398;2022-09-13T10:45:05;21.70;99.90
46652;DHT22;32377;52.182;5.398;2022-09-13T10:47:46;21.60;99.90
46652;DHT22;32377;52.182;5.398;2022-09-13T10:50:27;21.80;99.90
46652;DHT22;32377;52.182;5.398;2022-09-13T10:52:58;21.80;99.90
46652;DHT22;32377;52.182;5.398;2022-09-13T11:06:10;21.70;99.90
46652;DHT22;32377;52.182;5.398;2022-09-13T11:16:58;22.10;99.90
46652;DHT22;32377;52.182;5.398;2022-09-13T11:30:22;21.90;99.90
46652;DHT22;32377;52.182;5.398;2022-09-13T11:33:11;22.10;99.90
46652;DHT22;32377;52.182;5.398;2022-09-13T11:38:40;22.30;99.90
46652;DHT22;32377;52.182;5.398;2022-09-13T11:41:30;21.90;99.90
46652;DHT22;32377;52.182;5.398;2022-09-13T11:44:30;21.80;99.90
46652;DHT22;32377;52.182;5.398;2022-09-13T11:47:08;22.00;99.90
46652;DHT22;32377;52.182;5.398;2022-09-13T11:57:33;22.30;99.90
46652;DHT22;32377;52.182;5.398;2022-09-13T12:00:08;22.20;99.90
46652;DHT22;32377;52.182;5.398;2022-09-13T12:02:46;22.20;99.90
46652;DHT22;32377;52.182;5.398;2022-09-13T12:05:20;22.30;99.90
46652;DHT22;32377;52.182;5.398;2022-09-13T12:08:01;22.20;99.90
46652;DHT22;32377;52.182;5.398;2022-09-13T12:10:42;22.10;99.90
46652;DHT22;32377;52.182;5.398;2022-09-13T12:13:18;22.00;99.90
46652;DHT22;32377;52.182;5.398;2022-09-13T12:15:46;21.90;99.90
46652;DHT22;32377;52.182;5.398;2022-09-13T12:18:18;22.00;99.90
46652;DHT22;32377;52.182;5.398;2022-09-13T12:20:51;21.90;99.90
46652;DHT22;32377;52.182;5.398;2022-09-13T12:23:30;22.10;99.90
46652;DHT22;32377;52.182;5.398;2022-09-13T12:28:35;22.30;99.90
46652;DHT22;32377;52.182;5.398;2022-09-13T12:31:15;22.30;99.90
46652;DHT22;32377;52.182;5.398;2022-09-13T12:33:44;22.10;99.90
46652;DHT22;32377;52.182;5.398;2022-09-13T12:47:43;22.30;99.90
46652;DHT22;32377;52.182;5.398;2022-09-13T13:01:24;22.50;99.90
46652;DHT22;32377;52.182;5.398;2022-09-13T13:03:57;22.40;99.90
46652;DHT22;32377;52.182;5.398;2022-09-13T13:06:56;22.60;99.90
46652;DHT22;32377;52.182;5.398;2022-09-13T13:09:24;22.40;99.90
46652;DHT22;32377;52.182;5.398;2022-09-13T13:11:53;22.30;99.90
46652;DHT22;32377;52.182;5.398;2022-09-13T13:14:46;22.50;99.90
46652;DHT22;32377;52.182;5.398;2022-09-13T13:17:38;22.30;99.90
46652;DHT22;32377;52.182;5.398;2022-09-13T13:20:39;22.10;99.90
46652;DHT22;32377;52.182;5.398;2022-09-13T13:23:24;22.00;99.90
46652;DHT22;32377;52.182;5.398;2022-09-13T13:26:12;22.00;99.90
46652;DHT22;32377;52.182;5.398;2022-09-13T13:29:09;22.10;99.90
46652;DHT22;32377;52.182;5.398;2022-09-13T13:31:36;22.30;99.90
46652;DHT22;32377;52.182;5.398;2022-09-13T13:46:46;22.10;99.90
46652;DHT22;32377;52.182;5.398;2022-09-13T14:08:13;21.70;99.90
46652;DHT22;32377;52.182;5.398;2022-09-13T14:16:56;21.80;99.90
46652;DHT22;32377;52.182;5.398;2022-09-13T14:19:28;21.90;99.90
46652;DHT22;32377;52.182;5.398;2022-09-13T14:22:21;21.90;99.90
46652;DHT22;32377;52.182;5.398;2022-09-13T14:24:49;21.90;99.90
46652;DHT22;32377;52.182;5.398;2022-09-13T14:27:18;21.80;99.90
46652;DHT22;32377;52.182;5.398;2022-09-13T14:29:49;21.80;99.90
46652;DHT22;32377;52.182;5.398;2022-09-13T14:32:21;22.00;99.90
46652;DHT22;32377;52.182;5.398;2022-09-13T14:37:47;22.10;99.90
46652;DHT22;32377;52.182;5.398;2022-09-13T14:42:48;22.10;99.90
46652;DHT22;32377;52.182;5.398;2022-09-13T14:45:35;22.10;99.90
46652;DHT22;32377;52.182;5.398;2022-09-13T14:48:06;21.90;99.90
46652;DHT22;32377;52.182;5.398;2022-09-13T14:50:37;22.10;99.90
46652;DHT22;32377;52.182;5.398;2022-09-13T14:53:06;22.10;99.90
46652;DHT22;32377;52.182;5.398;2022-09-13T14:55:36;21.90;99.90
46652;DHT22;32377;52.182;5.398;2022-09-13T14:58:16;21.80;99.90
46652;DHT22;32377;52.182;5.398;2022-09-13T15:01:05;21.80;99.90
46652;DHT22;32377;52.182;5.398;2022-09-13T15:03:31;21.90;99.90
46652;DHT22;32377;52.182;5.398;2022-09-13T15:05:59;22.00;99.90
46652;DHT22;32377;52.182;5.398;2022-09-13T15:10:58;22.00;99.90
46652;DHT22;32377;52.182;5.398;2022-09-13T15:13:24;21.90;99.90
46652;DHT22;32377;52.182;5.398;2022-09-13T15:15:49;21.90;99.90
46652;DHT22;32377;52.182;5.398;2022-09-13T15:20:58;21.70;99.90
46652;DHT22;32377;52.182;5.398;2022-09-13T15:31:07;21.50;99.90
46652;DHT22;32377;52.182;5.398;2022-09-13T15:33:34;21.50;99.90
46652;DHT22;32377;52.182;5.398;2022-09-13T15:41:28;21.40;99.90
46652;DHT22;32377;52.182;5.398;2022-09-13T15:43:55;21.40;99.90
46652;DHT22;32377;52.182;5.398;2022-09-13T15:46:20;21.40;99.90
46652;DHT22;32377;52.182;5.398;2022-09-13T15:48:54;21.20;99.90
46652;DHT22;32377;52.182;5.398;2022-09-13T15:51:21;21.10;99.90
46652;DHT22;32377;52.182;5.398;2022-09-13T15:53:47;21.00;99.90
46652;DHT22;32377;52.182;5.398;2022-09-13T15:56:30;20.90;99.90
46652;DHT22;32377;52.182;5.398;2022-09-13T15:58:57;20.80;99.90
46652;DHT22;32377;52.182;5.398;2022-09-13T16:01:23;20.70;99.90
46652;DHT22;32377;52.182;5.398;2022-09-13T16:03:48;20.70;99.90
46652;DHT22;32377;52.182;5.398;2022-09-13T16:06:14;20.60;99.90
46652;DHT22;32377;52.182;5.398;2022-09-13T16:08:39;20.50;99.90
46652;DHT22;32377;52.182;5.398;2022-09-13T16:11:06;20.50;99.90
46652;DHT22;32377;52.182;5.398;2022-09-13T16:13:32;20.30;99.90
46652;DHT22;32377;52.182;5.398;2022-09-13T16:15:58;20.30;99.90
46652;DHT22;32377;52.182;5.398;2022-09-13T16:18:24;20.30;99.90
46652;DHT22;32377;52.182;5.398;2022-09-13T16:20:50;20.30;99.90
46652;DHT22;32377;52.182;5.398;2022-09-13T16:23:15;20.30;99.90
46652;DHT22;32377;52.182;5.398;2022-09-13T16:25:41;20.30;99.90
46652;DHT22;32377;52.182;5.398;2022-09-13T16:28:15;20.30;99.90
46652;DHT22;32377;52.182;5.398;2022-09-13T16:30:42;20.30;99.90
46652;DHT22;32377;52.182;5.398;2022-09-13T16:33:08;20.20;99.90
46652;DHT22;32377;52.182;5.398;2022-09-13T16:35:33;20.20;99.90
46652;DHT22;32377;52.182;5.398;2022-09-13T16:37:59;20.20;99.90
46652;DHT22;32377;52.182;5.398;2022-09-13T16:40:24;20.10;99.90
46652;DHT22;32377;52.182;5.398;2022-09-13T16:42:50;20.10;99.90
46652;DHT22;32377;52.182;5.398;2022-09-13T16:45:16;20.00;99.90
46652;DHT22;32377;52.182;5.398;2022-09-13T16:47:41;19.90;99.90
46652;DHT22;32377;52.182;5.398;2022-09-13T16:50:08;19.80;99.90
46652;DHT22;32377;52.182;5.398;2022-09-13T16:52:34;19.80;99.90
46652;DHT22;32377;52.182;5.398;2022-09-13T16:55:00;19.80;99.90
46652;DHT22;32377;52.182;5.398;2022-09-13T16:57:26;19.80;99.90
46652;DHT22;32377;52.182;5.398;2022-09-13T16:59:53;19.70;99.90
46652;DHT22;32377;52.182;5.398;2022-09-13T17:02:20;19.70;99.90
46652;DHT22;32377;52.182;5.398;2022-09-13T17:04:46;19.50;99.90
46652;DHT22;32377;52.182;5.398;2022-09-13T17:07:13;19.50;99.90
46652;DHT22;32377;52.182;5.398;2022-09-13T17:09:39;19.50;99.90
46652;DHT22;32377;52.182;5.398;2022-09-13T17:12:07;19.50;99.90
46652;DHT22;32377;52.182;5.398;2022-09-13T17:14:33;19.50;99.90
46652;DHT22;32377;52.182;5.398;2022-09-13T17:16:59;19.40;99.90
46652;DHT22;32377;52.182;5.398;2022-09-13T17:19:28;19.40;99.90
46652;DHT22;32377;52.182;5.398;2022-09-13T17:22:02;19.40;99.90
46652;DHT22;32377;52.182;5.398;2022-09-13T17:24:29;19.30;99.90
46652;DHT22;32377;52.182;5.398;2022-09-13T17:26:56;19.20;99.90
46652;DHT22;32377;52.182;5.398;2022-09-13T17:29:23;19.10;99.90
46652;DHT22;32377;52.182;5.398;2022-09-13T17:31:59;19.00;99.90
46652;DHT22;32377;52.182;5.398;2022-09-13T17:34:26;18.90;99.90
46652;DHT22;32377;52.182;5.398;2022-09-13T17:36:53;18.80;99.90
46652;DHT22;32377;52.182;5.398;2022-09-13T17:39:19;18.70;99.90
46652;DHT22;32377;52.182;5.398;2022-09-13T17:41:45;18.60;99.90
46652;DHT22;32377;52.182;5.398;2022-09-13T17:44:13;18.60;99.90
46652;DHT22;32377;52.182;5.398;2022-09-13T17:46:39;18.50;99.90
46652;DHT22;32377;52.182;5.398;2022-09-13T17:49:05;18.50;99.90
46652;DHT22;32377;52.182;5.398;2022-09-13T17:51:31;18.50;99.90
46652;DHT22;32377;52.182;5.398;2022-09-13T17:53:59;18.40;99.90
46652;DHT22;32377;52.182;5.398;2022-09-13T17:56:28;18.40;99.90
46652;DHT22;32377;52.182;5.398;2022-09-13T17:59:08;18.40;99.90
46652;DHT22;32377;52.182;5.398;2022-09-13T18:01:40;18.40;99.90
46652;DHT22;32377;52.182;5.398;2022-09-13T18:04:06;18.30;99.90
46652;DHT22;32377;52.182;5.398;2022-09-13T18:06:34;18.20;99.90
46652;DHT22;32377;52.182;5.398;2022-09-13T18:09:00;18.20;99.90
46652;DHT22;32377;52.182;5.398;2022-09-13T18:11:26;18.20;99.90
46652;DHT22;32377;52.182;5.398;2022-09-13T18:13:51;18.10;99.90
46652;DHT22;32377;52.182;5.398;2022-09-13T18:16:20;18.00;99.90
46652;DHT22;32377;52.182;5.398;2022-09-13T18:18:46;18.00;99.90
46652;DHT22;32377;52.182;5.398;2022-09-13T18:21:12;18.00;99.90
46652;DHT22;32377;52.182;5.398;2022-09-13T18:23:39;17.90;99.90
46652;DHT22;32377;52.182;5.398;2022-09-13T18:26:10;17.90;99.90
46652;DHT22;32377;52.182;5.398;2022-09-13T18:28:37;18.00;99.90
46652;DHT22;32377;52.182;5.398;2022-09-13T18:31:04;17.90;99.90
46652;DHT22;32377;52.182;5.398;2022-09-13T18:33:31;17.90;99.90
46652;DHT22;32377;52.182;5.398;2022-09-13T18:36:03;17.90;99.90
46652;DHT22;32377;52.182;5.398;2022-09-13T18:38:43;17.90;99.90
46652;DHT22;32377;52.182;5.398;2022-09-13T18:41:20;17.80;99.90
46652;DHT22;32377;52.182;5.398;2022-09-13T18:43:49;17.80;99.90
46652;DHT22;32377;52.182;5.398;2022-09-13T18:46:18;17.80;99.90
46652;DHT22;32377;52.182;5.398;2022-09-13T18:48:46;17.80;99.90
46652;DHT22;32377;52.182;5.398;2022-09-13T18:51:16;17.80;99.90
46652;DHT22;32377;52.182;5.398;2022-09-13T18:53:43;17.80;99.90
46652;DHT22;32377;52.182;5.398;2022-09-13T18:56:11;17.70;99.90
46652;DHT22;32377;52.182;5.398;2022-09-13T18:58:38;17.60;99.90
46652;DHT22;32377;52.182;5.398;2022-09-13T19:01:10;17.60;99.90
46652;DHT22;32377;52.182;5.398;2022-09-13T19:03:38;17.60;99.90
46652;DHT22;32377;52.182;5.398;2022-09-13T19:06:15;17.60;99.90
46652;DHT22;32377;52.182;5.398;2022-09-13T19:08:42;17.60;99.90
46652;DHT22;32377;52.182;5.398;2022-09-13T19:11:09;17.60;99.90